CCM74E LFKF-LIMJ
Flight info
| Callsign | CCM74E |
|---|---|
| Flight time | 0h 37m |
| Altitude | 26000 |
| Route | BTA G702 MILNO/N0370F180 G702 AKUTI/N0365F170 A9 TORTU/N0359F160 M858 UNITA |
| Aircraft | A320/M-SDE3FGHIRWY/LB1 |
Departure
| Time | 2026-04-27 19:44 |
|---|---|
| Airport | Figari Sud-Corse Airport (LFKF) |
Arrival
| Time | 2026-04-27 20:21 |
|---|---|
| Airport | Genoa Cristoforo Colombo Airport (LIMJ) |
| Time | Latitude | Longitude | Altitude | Speed | Heading |
|---|---|---|---|---|---|
| 2026-04-27 19:18 | 41.49966 | 9.09794 | 61 ft | 0 kts | 137° |
| 2026-04-27 19:30 | 41.49967 | 9.09794 | 71 ft | 0 kts | 137° |
| 2026-04-27 19:36 | 41.49979 | 9.09778 | 61 ft | 4 kts | 133° |
| 2026-04-27 19:37 | 41.49995 | 9.09750 | 66 ft | 4 kts | 112° |
| 2026-04-27 19:37 | 41.49998 | 9.09721 | 63 ft | 3 kts | 51° |
| 2026-04-27 19:37 | 41.49996 | 9.09718 | 63 ft | 1 kts | 47° |
| 2026-04-27 19:40 | 41.50009 | 9.09737 | 65 ft | 6 kts | 47° |
| 2026-04-27 19:40 | 41.50044 | 9.09787 | 69 ft | 9 kts | 47° |
| 2026-04-27 19:40 | 41.50101 | 9.09809 | 71 ft | 10 kts | 323° |
| 2026-04-27 19:40 | 41.50160 | 9.09737 | 65 ft | 13 kts | 317° |
| 2026-04-27 19:41 | 41.50183 | 9.09635 | 71 ft | 14 kts | 234° |
| 2026-04-27 19:41 | 41.50119 | 9.09541 | 70 ft | 14 kts | 228° |
| 2026-04-27 19:41 | 41.50050 | 9.09441 | 71 ft | 16 kts | 225° |
| 2026-04-27 19:41 | 41.49968 | 9.09322 | 73 ft | 18 kts | 228° |
| 2026-04-27 19:42 | 41.49873 | 9.09183 | 68 ft | 23 kts | 228° |
| 2026-04-27 19:42 | 41.49753 | 9.09010 | 63 ft | 27 kts | 227° |
| 2026-04-27 19:42 | 41.49631 | 9.08832 | 54 ft | 28 kts | 227° |
| 2026-04-27 19:42 | 41.49538 | 9.08706 | 50 ft | 13 kts | 210° |
| 2026-04-27 19:43 | 41.49468 | 9.08650 | 47 ft | 9 kts | 274° |
| 2026-04-27 19:43 | 41.49492 | 9.08640 | 47 ft | 2 kts | 7° |
| 2026-04-27 19:43 | 41.49504 | 9.08649 | 47 ft | 3 kts | 34° |
| 2026-04-27 19:43 | 41.49609 | 9.08801 | 53 ft | 57 kts | 47° |
| 2026-04-27 19:44 | 41.50030 | 9.09410 | 75 ft | 120 kts | 47° |
| 2026-04-27 19:44 | 41.50694 | 9.10376 | 317 ft | 143 kts | 47° |
| 2026-04-27 19:44 | 41.51352 | 9.11366 | 879 ft | 145 kts | 49° |
| 2026-04-27 19:44 | 41.52030 | 9.12388 | 1397 ft | 149 kts | 48° |
| 2026-04-27 19:45 | 41.52744 | 9.13435 | 1847 ft | 159 kts | 48° |
| 2026-04-27 19:45 | 41.53529 | 9.14574 | 2100 ft | 178 kts | 47° |
| 2026-04-27 19:45 | 41.54451 | 9.15915 | 2205 ft | 211 kts | 48° |
| 2026-04-27 19:45 | 41.55487 | 9.17423 | 2537 ft | 236 kts | 48° |
| 2026-04-27 19:46 | 41.56651 | 9.19113 | 3023 ft | 256 kts | 47° |
| 2026-04-27 19:46 | 41.57882 | 9.20895 | 3809 ft | 264 kts | 47° |
| 2026-04-27 19:46 | 41.59137 | 9.22718 | 4677 ft | 269 kts | 47° |
| 2026-04-27 19:46 | 41.60415 | 9.24578 | 5547 ft | 274 kts | 47° |
| 2026-04-27 19:47 | 41.61714 | 9.26467 | 6421 ft | 279 kts | 47° |
| 2026-04-27 19:47 | 41.63038 | 9.28395 | 7231 ft | 283 kts | 47° |
| 2026-04-27 19:47 | 41.64377 | 9.30347 | 8083 ft | 286 kts | 47° |
| 2026-04-27 19:47 | 41.65703 | 9.32341 | 8944 ft | 289 kts | 53° |
| 2026-04-27 19:48 | 41.66776 | 9.34632 | 9816 ft | 292 kts | 60° |
| 2026-04-27 19:48 | 41.67793 | 9.36991 | 10602 ft | 295 kts | 60° |
| 2026-04-27 19:48 | 41.68850 | 9.39443 | 10955 ft | 316 kts | 60° |
| 2026-04-27 19:48 | 41.70016 | 9.42067 | 11199 ft | 338 kts | 54° |
| 2026-04-27 19:49 | 41.71705 | 9.44308 | 11729 ft | 348 kts | 33° |
| 2026-04-27 19:49 | 41.73926 | 9.45588 | 12419 ft | 351 kts | 11° |
| 2026-04-27 19:49 | 41.76362 | 9.45648 | 13142 ft | 353 kts | 349° |
| 2026-04-27 19:49 | 41.78778 | 9.44960 | 13890 ft | 357 kts | 347° |
| 2026-04-27 19:50 | 41.81207 | 9.44224 | 14546 ft | 360 kts | 346° |
| 2026-04-27 19:50 | 41.83661 | 9.43472 | 15193 ft | 363 kts | 347° |
| 2026-04-27 19:50 | 41.86138 | 9.42716 | 15840 ft | 367 kts | 347° |
| 2026-04-27 19:50 | 41.88638 | 9.41959 | 16467 ft | 370 kts | 347° |
| 2026-04-27 19:51 | 41.91160 | 9.41199 | 17079 ft | 373 kts | 347° |
| 2026-04-27 19:51 | 41.93706 | 9.40434 | 17684 ft | 376 kts | 347° |
| 2026-04-27 19:51 | 41.96274 | 9.39664 | 18293 ft | 380 kts | 347° |
| 2026-04-27 19:51 | 41.98867 | 9.38884 | 18824 ft | 383 kts | 347° |
| 2026-04-27 19:52 | 42.01479 | 9.38098 | 19351 ft | 386 kts | 347° |
| 2026-04-27 19:52 | 42.03215 | 9.37574 | 19704 ft | 388 kts | 347° |
| 2026-04-27 19:52 | 42.06759 | 9.36503 | 20441 ft | 392 kts | 347° |
| 2026-04-27 19:52 | 42.09428 | 9.35699 | 20958 ft | 395 kts | 347° |
| 2026-04-27 19:53 | 42.14837 | 9.34072 | 21981 ft | 401 kts | 347° |
| 2026-04-27 19:53 | 42.17568 | 9.33245 | 22478 ft | 405 kts | 347° |
| 2026-04-27 19:53 | 42.20330 | 9.32409 | 22965 ft | 408 kts | 347° |
| 2026-04-27 19:54 | 42.23103 | 9.31571 | 23446 ft | 411 kts | 347° |
| 2026-04-27 19:54 | 42.25900 | 9.30725 | 23899 ft | 413 kts | 347° |
| 2026-04-27 19:54 | 42.28675 | 9.29882 | 24313 ft | 414 kts | 347° |
| 2026-04-27 19:54 | 42.31496 | 9.29026 | 24724 ft | 416 kts | 347° |
| 2026-04-27 19:55 | 42.34327 | 9.28166 | 25115 ft | 418 kts | 347° |
| 2026-04-27 19:55 | 42.37173 | 9.27301 | 25494 ft | 420 kts | 347° |
| 2026-04-27 19:55 | 42.40028 | 9.26432 | 25874 ft | 421 kts | 347° |
| 2026-04-27 19:55 | 42.42893 | 9.25559 | 26083 ft | 422 kts | 347° |
| 2026-04-27 19:56 | 42.45732 | 9.24692 | 26125 ft | 415 kts | 347° |
| 2026-04-27 19:56 | 42.48542 | 9.23833 | 26125 ft | 412 kts | 347° |
| 2026-04-27 19:56 | 42.51331 | 9.22981 | 26127 ft | 411 kts | 347° |
| 2026-04-27 19:56 | 42.54120 | 9.22130 | 26127 ft | 411 kts | 347° |
| 2026-04-27 19:57 | 42.56907 | 9.21276 | 26127 ft | 411 kts | 347° |
| 2026-04-27 19:57 | 42.59694 | 9.20421 | 26127 ft | 411 kts | 347° |
| 2026-04-27 19:57 | 42.62485 | 9.19565 | 26127 ft | 411 kts | 347° |
| 2026-04-27 19:57 | 42.65267 | 9.18709 | 26130 ft | 411 kts | 347° |
| 2026-04-27 19:58 | 42.68051 | 9.17851 | 26124 ft | 410 kts | 347° |
| 2026-04-27 19:58 | 42.70830 | 9.16996 | 26122 ft | 409 kts | 347° |
| 2026-04-27 19:58 | 42.73608 | 9.16144 | 26121 ft | 409 kts | 347° |
| 2026-04-27 19:58 | 42.76388 | 9.15292 | 26118 ft | 409 kts | 347° |
| 2026-04-27 19:59 | 42.79163 | 9.14440 | 26116 ft | 409 kts | 347° |
| 2026-04-27 19:59 | 42.81937 | 9.13584 | 26114 ft | 409 kts | 347° |
| 2026-04-27 19:59 | 42.84709 | 9.12725 | 26116 ft | 409 kts | 347° |
| 2026-04-27 19:59 | 42.87482 | 9.11865 | 26115 ft | 408 kts | 347° |
| 2026-04-27 20:00 | 42.89317 | 9.11297 | 26116 ft | 408 kts | 347° |
| 2026-04-27 20:00 | 42.93022 | 9.10151 | 26120 ft | 408 kts | 347° |
| 2026-04-27 20:00 | 42.95795 | 9.09290 | 26102 ft | 407 kts | 347° |
| 2026-04-27 20:00 | 42.98499 | 9.08451 | 25854 ft | 401 kts | 347° |
| 2026-04-27 20:01 | 43.01204 | 9.07614 | 25613 ft | 398 kts | 347° |
| 2026-04-27 20:01 | 43.03899 | 9.06778 | 25370 ft | 396 kts | 347° |
| 2026-04-27 20:01 | 43.06583 | 9.05944 | 25130 ft | 395 kts | 347° |
| 2026-04-27 20:01 | 43.09259 | 9.05110 | 24888 ft | 394 kts | 347° |
| 2026-04-27 20:02 | 43.11066 | 9.04546 | 24729 ft | 393 kts | 347° |
| 2026-04-27 20:02 | 43.13721 | 9.03715 | 24490 ft | 390 kts | 347° |
| 2026-04-27 20:02 | 43.16315 | 9.02901 | 24090 ft | 386 kts | 347° |
| 2026-04-27 20:02 | 43.18923 | 9.02080 | 23634 ft | 383 kts | 347° |
| 2026-04-27 20:03 | 43.21507 | 9.01269 | 23157 ft | 379 kts | 347° |
| 2026-04-27 20:03 | 43.24068 | 9.00468 | 22719 ft | 375 kts | 347° |
| 2026-04-27 20:03 | 43.26597 | 8.99680 | 22289 ft | 371 kts | 347° |
| 2026-04-27 20:03 | 43.29098 | 8.98899 | 21862 ft | 367 kts | 347° |
| 2026-04-27 20:04 | 43.31576 | 8.98121 | 21428 ft | 364 kts | 347° |
| 2026-04-27 20:04 | 43.34033 | 8.97347 | 20998 ft | 361 kts | 347° |
| 2026-04-27 20:04 | 43.36470 | 8.96579 | 20554 ft | 358 kts | 347° |
| 2026-04-27 20:04 | 43.38922 | 8.96051 | 20117 ft | 356 kts | 356° |
| 2026-04-27 20:05 | 43.41418 | 8.96141 | 19748 ft | 363 kts | 4° |
| 2026-04-27 20:05 | 43.43943 | 8.96455 | 19371 ft | 365 kts | 4° |
| 2026-04-27 20:05 | 43.46469 | 8.96769 | 18990 ft | 364 kts | 4° |
| 2026-04-27 20:05 | 43.48986 | 8.97082 | 18617 ft | 362 kts | 4° |
| 2026-04-27 20:06 | 43.51492 | 8.97392 | 18216 ft | 360 kts | 4° |
| 2026-04-27 20:06 | 43.53981 | 8.97700 | 17833 ft | 358 kts | 4° |
| 2026-04-27 20:06 | 43.56464 | 8.98005 | 17463 ft | 356 kts | 4° |
| 2026-04-27 20:06 | 43.58929 | 8.98297 | 17095 ft | 354 kts | 4° |
| 2026-04-27 20:07 | 43.61378 | 8.98581 | 16732 ft | 352 kts | 4° |
| 2026-04-27 20:07 | 43.63816 | 8.98863 | 16367 ft | 351 kts | 4° |
| 2026-04-27 20:07 | 43.66240 | 8.99141 | 16003 ft | 349 kts | 4° |
| 2026-04-27 20:07 | 43.68651 | 8.99417 | 15646 ft | 347 kts | 4° |
| 2026-04-27 20:08 | 43.71016 | 8.99689 | 15287 ft | 345 kts | 4° |
| 2026-04-27 20:08 | 43.73398 | 8.99964 | 14936 ft | 343 kts | 5° |
| 2026-04-27 20:08 | 43.75768 | 9.00241 | 14582 ft | 341 kts | 5° |
| 2026-04-27 20:08 | 43.78127 | 9.00516 | 14232 ft | 339 kts | 5° |
| 2026-04-27 20:09 | 43.80473 | 9.00792 | 13875 ft | 338 kts | 5° |
| 2026-04-27 20:09 | 43.82808 | 9.01069 | 13499 ft | 336 kts | 5° |
| 2026-04-27 20:09 | 43.85130 | 9.01352 | 13145 ft | 334 kts | 5° |
| 2026-04-27 20:09 | 43.87443 | 9.01637 | 12793 ft | 333 kts | 5° |
| 2026-04-27 20:10 | 43.89749 | 9.01918 | 12443 ft | 331 kts | 5° |
| 2026-04-27 20:10 | 43.92029 | 9.02321 | 12091 ft | 330 kts | 13° |
| 2026-04-27 20:10 | 43.94157 | 9.03431 | 11823 ft | 323 kts | 28° |
| 2026-04-27 20:10 | 43.95964 | 9.05190 | 11697 ft | 312 kts | 42° |
| 2026-04-27 20:11 | 43.97404 | 9.07371 | 11575 ft | 302 kts | 48° |
| 2026-04-27 20:11 | 43.98999 | 9.09276 | 11227 ft | 307 kts | 30° |
| 2026-04-27 20:11 | 44.00993 | 9.10445 | 10687 ft | 310 kts | 20° |
| 2026-04-27 20:11 | 44.02956 | 9.11436 | 10410 ft | 293 kts | 20° |
| 2026-04-27 20:12 | 44.04851 | 9.12392 | 9858 ft | 287 kts | 20° |
| 2026-04-27 20:12 | 44.06722 | 9.13342 | 9207 ft | 284 kts | 20° |
| 2026-04-27 20:12 | 44.08574 | 9.14288 | 8525 ft | 283 kts | 20° |
| 2026-04-27 20:12 | 44.10416 | 9.15235 | 7855 ft | 282 kts | 20° |
| 2026-04-27 20:13 | 44.12251 | 9.16180 | 7204 ft | 282 kts | 20° |
| 2026-04-27 20:13 | 44.14064 | 9.17113 | 6812 ft | 281 kts | 20° |
| 2026-04-27 20:13 | 44.15894 | 9.18056 | 6419 ft | 280 kts | 20° |
| 2026-04-27 20:13 | 44.17717 | 9.18997 | 6001 ft | 279 kts | 20° |
| 2026-04-27 20:14 | 44.19534 | 9.19933 | 5588 ft | 278 kts | 20° |
| 2026-04-27 20:14 | 44.21343 | 9.20867 | 5182 ft | 277 kts | 19° |
| 2026-04-27 20:14 | 44.23144 | 9.21797 | 4778 ft | 276 kts | 19° |
| 2026-04-27 20:14 | 44.24929 | 9.22719 | 4525 ft | 270 kts | 20° |
| 2026-04-27 20:15 | 44.26642 | 9.23558 | 4514 ft | 252 kts | 12° |
| 2026-04-27 20:15 | 44.28319 | 9.23679 | 4518 ft | 235 kts | 349° |
| 2026-04-27 20:15 | 44.29822 | 9.22936 | 4504 ft | 229 kts | 327° |
| 2026-04-27 20:15 | 44.31100 | 9.21613 | 4447 ft | 229 kts | 319° |
| 2026-04-27 20:16 | 44.32346 | 9.20237 | 4444 ft | 229 kts | 321° |
| 2026-04-27 20:16 | 44.33478 | 9.18707 | 4479 ft | 227 kts | 304° |
| 2026-04-27 20:16 | 44.34186 | 9.16759 | 4497 ft | 224 kts | 286° |
| 2026-04-27 20:16 | 44.34652 | 9.14675 | 4442 ft | 225 kts | 285° |
| 2026-04-27 20:17 | 44.35111 | 9.12592 | 4228 ft | 224 kts | 285° |
| 2026-04-27 20:17 | 44.35561 | 9.10515 | 3886 ft | 224 kts | 285° |
| 2026-04-27 20:17 | 44.36017 | 9.08417 | 3467 ft | 226 kts | 284° |
| 2026-04-27 20:17 | 44.36477 | 9.06347 | 3064 ft | 219 kts | 285° |
| 2026-04-27 20:18 | 44.36917 | 9.04367 | 2778 ft | 208 kts | 284° |
| 2026-04-27 20:18 | 44.37327 | 9.02479 | 2515 ft | 198 kts | 284° |
| 2026-04-27 20:18 | 44.37720 | 9.00664 | 2420 ft | 194 kts | 284° |
| 2026-04-27 20:18 | 44.38097 | 8.98888 | 2099 ft | 187 kts | 286° |
| 2026-04-27 20:19 | 44.38500 | 8.97219 | 1886 ft | 171 kts | 288° |
| 2026-04-27 20:19 | 44.38880 | 8.95738 | 1742 ft | 156 kts | 290° |
| 2026-04-27 20:19 | 44.39203 | 8.94352 | 1532 ft | 146 kts | 286° |
| 2026-04-27 20:19 | 44.39470 | 8.93004 | 1284 ft | 143 kts | 283° |
| 2026-04-27 20:20 | 44.39722 | 8.91662 | 1010 ft | 142 kts | 284° |
| 2026-04-27 20:20 | 44.39982 | 8.90324 | 766 ft | 143 kts | 284° |
| 2026-04-27 20:20 | 44.40245 | 8.88987 | 561 ft | 141 kts | 285° |
| 2026-04-27 20:20 | 44.40511 | 8.87684 | 362 ft | 138 kts | 285° |
| 2026-04-27 20:21 | 44.40761 | 8.86393 | 164 ft | 136 kts | 285° |
| 2026-04-27 20:21 | 44.41004 | 8.85142 | 20 ft | 124 kts | 284° |
| 2026-04-27 20:21 | 44.41167 | 8.84332 | 21 ft | 43 kts | 285° |
| 2026-04-27 20:21 | 44.41217 | 8.84074 | 21 ft | 26 kts | 285° |
| 2026-04-27 20:22 | 44.41272 | 8.83845 | 20 ft | 15 kts | 307° |
| 2026-04-27 20:22 | 44.41326 | 8.83770 | 20 ft | 11 kts | 319° |
| 2026-04-27 20:22 | 44.41389 | 8.83750 | 20 ft | 9 kts | 20° |
| 2026-04-27 20:22 | 44.41419 | 8.83809 | 22 ft | 7 kts | 84° |
| 2026-04-27 20:23 | 44.41411 | 8.83867 | 22 ft | 6 kts | 105° |
| 2026-04-27 20:23 | 44.41395 | 8.83944 | 22 ft | 10 kts | 105° |
| 2026-04-27 20:23 | 44.41372 | 8.84064 | 20 ft | 15 kts | 105° |
| 2026-04-27 20:23 | 44.41343 | 8.84210 | 20 ft | 14 kts | 105° |
| 2026-04-27 20:24 | 44.41319 | 8.84335 | 20 ft | 12 kts | 105° |
| 2026-04-27 20:24 | 44.41334 | 8.84443 | 20 ft | 11 kts | 54° |
| 2026-04-27 20:24 | 44.41383 | 8.84529 | 20 ft | 11 kts | 52° |
| 2026-04-27 20:24 | 44.41415 | 8.84619 | 22 ft | 10 kts | 94° |
| 2026-04-27 20:25 | 44.41398 | 8.84706 | 23 ft | 9 kts | 104° |
| 2026-04-27 20:25 | 44.41383 | 8.84785 | 23 ft | 8 kts | 105° |
| 2026-04-27 20:25 | 44.41389 | 8.84849 | 22 ft | 6 kts | 64° |
| 2026-04-27 20:25 | 44.41410 | 8.84898 | 20 ft | 6 kts | 59° |
| 2026-04-27 20:26 | 44.41427 | 8.84940 | 20 ft | 4 kts | 60° |
| 2026-04-27 20:26 | 44.41429 | 8.84944 | 20 ft | 0 kts | 60° |